createdAt,value
2022-12-03T00:01:17.435Z,81.65
2022-12-03T00:03:44.863Z,81.89
2022-12-03T00:06:12.201Z,81.62
2022-12-03T00:08:40.062Z,81.68
2022-12-03T00:11:07.069Z,81.97
2022-12-03T00:13:34.686Z,81.66
2022-12-03T00:16:01.706Z,81.74
2022-12-03T00:18:29.048Z,81.53
2022-12-03T00:20:56.230Z,81.47
2022-12-03T00:23:23.491Z,81.48
2022-12-03T00:25:50.767Z,81.92
2022-12-03T00:28:18.053Z,81.73
2022-12-03T00:30:45.620Z,81.51
2022-12-03T00:33:12.974Z,81.49
2022-12-03T00:35:40.011Z,81.32
2022-12-03T00:38:07.335Z,81.55
2022-12-03T00:40:35.007Z,81.13
2022-12-03T00:43:02.303Z,80.77
2022-12-03T00:45:29.393Z,80.87
2022-12-03T00:47:57.198Z,80.68
2022-12-03T00:50:49.615Z,80.42
2022-12-03T00:56:01.066Z,80.87
2022-12-03T00:58:28.557Z,80.73
2022-12-03T01:00:55.622Z,80.68
2022-12-03T01:03:23.268Z,80.33
2022-12-03T01:05:50.230Z,80.84
2022-12-03T01:08:17.684Z,80.78
2022-12-03T01:10:44.625Z,80.46
2022-12-03T01:13:11.947Z,80.98
2022-12-03T01:15:39.014Z,80.22
2022-12-03T01:18:06.495Z,80.20
2022-12-03T01:20:33.738Z,79.94
2022-12-03T01:23:01.590Z,80.06
2022-12-03T01:25:28.632Z,80.03
2022-12-03T01:27:56.172Z,80.31
2022-12-03T01:30:23.102Z,80.29
2022-12-03T01:32:50.585Z,79.84
2022-12-03T01:35:17.644Z,79.95
2022-12-03T01:37:45.020Z,79.73
2022-12-03T01:40:19.949Z,80.03
2022-12-03T01:42:47.369Z,80.13
2022-12-03T01:45:23.997Z,80.06
2022-12-03T01:47:52.516Z,79.88
2022-12-03T01:50:26.881Z,79.87
2022-12-03T01:52:58.427Z,79.29
2022-12-03T01:55:26.787Z,79.55
2022-12-03T01:57:56.966Z,79.54
2022-12-03T02:00:30.080Z,79.46
2022-12-03T02:03:03.745Z,79.21
2022-12-03T02:05:33.258Z,79.46
2022-12-03T02:08:02.197Z,79.79
2022-12-03T02:10:36.223Z,79.73
2022-12-03T02:13:07.684Z,79.74
2022-12-03T02:15:36.477Z,79.69
2022-12-03T02:18:04.301Z,79.34
2022-12-03T02:20:36.803Z,79.60
2022-12-03T02:23:25.744Z,79.65
2022-12-03T02:25:53.012Z,79.45
2022-12-03T02:28:20.320Z,79.27
2022-12-03T02:30:47.369Z,79.83
2022-12-03T02:33:14.812Z,79.96
2022-12-03T02:35:41.859Z,80.12
2022-12-03T02:38:31.425Z,79.95
2022-12-03T02:41:05.026Z,80.01
2022-12-03T02:43:32.759Z,80.40
2022-12-03T02:46:02.660Z,80.61
2022-12-03T02:48:37.229Z,80.53
2022-12-03T02:51:07.225Z,80.35
2022-12-03T02:53:42.654Z,80.35
2022-12-03T02:56:13.308Z,80.11
2022-12-03T03:01:09.777Z,79.72
2022-12-03T03:03:38.041Z,79.20
2022-12-03T03:06:07.105Z,79.46
2022-12-03T03:08:35.310Z,79.22
2022-12-03T03:11:03.655Z,79.29
2022-12-03T03:13:33.393Z,79.27
2022-12-03T03:16:03.151Z,78.89
2022-12-03T03:18:30.908Z,79.36
2022-12-03T03:20:58.040Z,78.71
2022-12-03T03:23:25.314Z,78.70
2022-12-03T03:26:06.187Z,78.66
2022-12-03T03:28:38.738Z,78.94
2022-12-03T03:31:08.342Z,79.14
2022-12-03T03:33:38.770Z,79.21
2022-12-03T03:36:07.320Z,78.52
2022-12-03T03:38:36.270Z,79.13
2022-12-03T03:41:06.005Z,79.30
2022-12-03T03:43:35.571Z,79.34
2022-12-03T03:46:05.705Z,79.38
2022-12-03T03:48:37.394Z,79.68
2022-12-03T03:51:09.423Z,79.71
2022-12-03T03:53:40.126Z,79.79
2022-12-03T03:56:09.798Z,79.83
2022-12-03T03:58:37.852Z,80.28
2022-12-03T04:01:05.367Z,80.21
2022-12-03T04:03:35.418Z,80.43
2022-12-03T04:06:03.525Z,80.22
2022-12-03T04:08:31.305Z,80.53
2022-12-03T04:11:16.925Z,80.34
2022-12-03T04:13:44.318Z,79.80
2022-12-03T04:16:11.273Z,80.16
2022-12-03T04:18:44.429Z,80.28
2022-12-03T04:21:35.717Z,80.36
2022-12-03T04:24:03.789Z,79.92
2022-12-03T04:26:49.880Z,79.93
2022-12-03T04:29:17.234Z,79.93
2022-12-03T04:32:02.602Z,79.96
2022-12-03T04:34:48.285Z,80.22
2022-12-03T04:37:15.520Z,79.82
2022-12-03T04:39:43.419Z,80.17
2022-12-03T04:42:10.434Z,80.73
2022-12-03T04:44:38.772Z,80.78
2022-12-03T04:47:17.694Z,80.84
2022-12-03T04:49:47.311Z,80.85
2022-12-03T04:52:16.483Z,80.95
2022-12-03T04:54:44.778Z,80.67
2022-12-03T04:57:12.802Z,80.61
2022-12-03T04:59:40.458Z,80.55
2022-12-03T05:02:08.088Z,80.72
2022-12-03T05:04:35.929Z,80.71
2022-12-03T05:07:03.237Z,80.90
2022-12-03T05:09:30.676Z,80.94
2022-12-03T05:11:57.631Z,80.89
2022-12-03T05:14:25.022Z,81.11
2022-12-03T05:16:52.115Z,80.93
2022-12-03T05:19:19.510Z,81.38
2022-12-03T05:21:55.640Z,81.10
2022-12-03T05:24:33.975Z,81.28
2022-12-03T05:27:01.469Z,80.91
2022-12-03T05:29:28.732Z,81.11
2022-12-03T05:31:57.651Z,81.29
2022-12-03T05:34:25.513Z,81.43
2022-12-03T05:36:52.593Z,81.08
2022-12-03T05:39:20.028Z,81.43
2022-12-03T05:42:05.422Z,81.57
2022-12-03T05:44:32.702Z,81.66
2022-12-03T05:46:59.648Z,81.54
2022-12-03T05:49:26.968Z,81.48
2022-12-03T05:51:58.393Z,81.34
2022-12-03T05:54:26.479Z,81.50
2022-12-03T05:56:53.509Z,81.82
2022-12-03T05:59:20.970Z,81.05
2022-12-03T06:01:47.981Z,81.42
2022-12-03T06:04:15.290Z,81.82
2022-12-03T06:06:42.784Z,81.54
2022-12-03T06:09:10.144Z,81.95
2022-12-03T06:11:37.456Z,82.01
2022-12-03T06:14:04.800Z,82.56
2022-12-03T06:16:32.375Z,82.25
2022-12-03T06:19:14.130Z,82.40
2022-12-03T06:21:42.768Z,82.66
2022-12-03T06:27:04.150Z,83.23
2022-12-03T06:32:28.761Z,84.13
2022-12-03T06:37:40.156Z,84.56
2022-12-03T06:40:09.454Z,84.39
2022-12-03T06:42:36.562Z,84.40
2022-12-03T06:45:04.344Z,84.81
2022-12-03T06:47:31.371Z,85.85
2022-12-03T06:49:59.080Z,85.64
2022-12-03T06:55:11.228Z,86.30
2022-12-03T06:57:38.254Z,86.72
2022-12-03T07:00:06.672Z,86.32
2022-12-03T07:02:33.761Z,86.46
2022-12-03T07:05:01.460Z,86.42
2022-12-03T07:07:28.584Z,86.24
2022-12-03T07:09:56.177Z,86.68
2022-12-03T07:12:24.254Z,87.11
2022-12-03T07:14:52.147Z,86.73
2022-12-03T07:17:19.564Z,86.47
2022-12-03T07:19:47.262Z,86.53
2022-12-03T07:22:18.568Z,86.63
2022-12-03T07:24:51.083Z,86.54
2022-12-03T07:27:19.325Z,86.05
2022-12-03T07:29:46.766Z,86.08
2022-12-03T07:32:14.887Z,86.00
2022-12-03T07:34:44.186Z,86.09
2022-12-03T07:37:11.266Z,86.24
2022-12-03T07:39:41.018Z,86.39
2022-12-03T07:42:10.082Z,86.53
2022-12-03T07:47:20.360Z,87.13
2022-12-03T07:49:47.763Z,87.25
2022-12-03T07:52:15.026Z,87.02
2022-12-03T07:54:42.479Z,87.17
2022-12-03T07:57:09.528Z,87.56
2022-12-03T07:59:36.839Z,87.21
2022-12-03T08:02:04.020Z,86.97
2022-12-03T08:04:35.704Z,87.10
2022-12-03T08:07:03.408Z,87.39
2022-12-03T08:09:32.678Z,87.38
2022-12-03T08:12:05.597Z,87.64
2022-12-03T08:14:33.899Z,88.20
2022-12-03T08:17:02.066Z,88.35
2022-12-03T08:19:31.896Z,88.71
2022-12-03T08:22:01.621Z,89.09
2022-12-03T08:24:32.331Z,88.92
2022-12-03T08:26:59.805Z,88.68
2022-12-03T08:29:34.500Z,88.75
2022-12-03T08:32:01.579Z,89.09
2022-12-03T08:34:35.844Z,89.49
2022-12-03T08:37:18.180Z,89.50
2022-12-03T08:39:48.582Z,89.01
2022-12-03T08:42:41.758Z,88.93
2022-12-03T08:45:40.574Z,89.45
2022-12-03T08:48:40.698Z,89.29
2022-12-03T08:51:25.601Z,89.94
2022-12-03T08:54:01.856Z,90.63
2022-12-03T08:56:33.601Z,90.85
2022-12-03T08:59:25.007Z,91.13
2022-12-03T09:01:55.034Z,91.48
2022-12-03T09:04:30.730Z,92.15
2022-12-03T09:07:01.155Z,92.09
2022-12-03T09:09:29.315Z,92.09
2022-12-03T09:11:59.752Z,92.16
2022-12-03T09:14:29.656Z,91.87
2022-12-03T09:16:57.585Z,92.10
2022-12-03T09:19:27.479Z,92.06
2022-12-03T09:21:55.768Z,91.62
2022-12-03T09:24:23.405Z,91.63
2022-12-03T09:26:56.453Z,91.48
2022-12-03T09:29:24.342Z,91.22
2022-12-03T09:31:51.765Z,91.61
2022-12-03T09:34:18.886Z,91.67
2022-12-03T09:36:46.212Z,91.40
2022-12-03T09:39:13.349Z,91.41
2022-12-03T09:41:40.849Z,91.61
2022-12-03T09:44:13.726Z,91.48
2022-12-03T09:46:46.691Z,91.13
2022-12-03T09:49:16.648Z,91.04
2022-12-03T09:51:48.789Z,91.20
2022-12-03T09:54:24.107Z,91.22
2022-12-03T09:56:52.808Z,91.04
2022-12-03T09:59:21.953Z,91.02
2022-12-03T10:01:50.114Z,91.00
2022-12-03T10:04:17.904Z,91.33
2022-12-03T10:06:46.395Z,91.41
2022-12-03T10:09:17.577Z,91.55
2022-12-03T10:11:45.432Z,91.55
2022-12-03T10:14:17.943Z,91.74
2022-12-03T10:17:02.527Z,91.79
2022-12-03T10:19:35.849Z,91.35
2022-12-03T10:22:03.872Z,92.03
2022-12-03T10:24:32.652Z,91.97
2022-12-03T10:30:02.437Z,92.02
2022-12-03T10:32:45.505Z,91.87
2022-12-03T10:35:14.187Z,92.37
2022-12-03T10:38:00.682Z,92.08
2022-12-03T10:40:33.925Z,91.69
2022-12-03T10:43:19.937Z,92.04
2022-12-03T10:46:08.038Z,91.71
2022-12-03T10:48:36.890Z,91.86
2022-12-03T10:51:32.339Z,92.30
2022-12-03T10:54:14.514Z,92.32
2022-12-03T10:56:41.502Z,92.21
2022-12-03T10:59:31.338Z,92.62
2022-12-03T11:01:58.611Z,92.08
2022-12-03T11:04:35.211Z,91.94
2022-12-03T11:07:03.372Z,91.69
2022-12-03T11:09:32.878Z,92.03
2022-12-03T11:15:09.814Z,91.98
2022-12-03T11:18:10.557Z,91.95
2022-12-03T11:20:58.444Z,91.84
2022-12-03T11:23:44.807Z,92.07
2022-12-03T11:26:19.569Z,91.56
2022-12-03T11:28:49.287Z,92.15
2022-12-03T11:31:37.771Z,91.94
2022-12-03T11:34:20.514Z,91.92
2022-12-03T11:37:09.620Z,92.16
2022-12-03T11:39:52.730Z,92.09
2022-12-03T11:42:26.482Z,91.41
2022-12-03T11:45:28.482Z,91.14
2022-12-03T11:47:58.974Z,91.16
2022-12-03T11:50:40.557Z,90.79
2022-12-03T11:53:07.982Z,90.89
2022-12-03T11:55:41.502Z,91.20
2022-12-03T11:58:19.439Z,90.78
2022-12-03T12:00:58.332Z,90.91
2022-12-03T12:03:33.952Z,90.42
2022-12-03T12:06:05.907Z,90.49
2022-12-03T12:08:39.218Z,89.96
2022-12-03T12:11:32.662Z,90.37
2022-12-03T12:14:00.575Z,90.41
2022-12-03T12:16:36.354Z,90.26
2022-12-03T12:19:29.942Z,90.58
2022-12-03T12:22:12.841Z,90.56
2022-12-03T12:24:40.558Z,90.08
2022-12-03T12:27:19.131Z,89.56
2022-12-03T12:29:54.969Z,89.64
2022-12-03T12:32:46.038Z,89.87
2022-12-03T12:35:26.458Z,89.92
2022-12-03T12:37:59.814Z,89.85
2022-12-03T12:40:31.128Z,89.37
2022-12-03T12:43:05.414Z,89.29
2022-12-03T12:45:41.299Z,89.40
2022-12-03T12:48:28.957Z,89.64
2022-12-03T12:51:19.594Z,89.09
2022-12-03T12:53:49.891Z,89.43
2022-12-03T12:56:25.577Z,89.40
2022-12-03T12:58:53.830Z,89.40
2022-12-03T13:01:29.163Z,89.04
2022-12-03T13:03:57.102Z,89.18
2022-12-03T13:06:27.996Z,89.20
2022-12-03T13:08:55.532Z,89.00
2022-12-03T13:11:45.814Z,88.67
2022-12-03T13:14:16.215Z,88.65
2022-12-03T13:16:44.430Z,88.66
2022-12-03T13:19:29.313Z,88.71
2022-12-03T13:22:00.912Z,88.36
2022-12-03T13:28:41.894Z,87.62
2022-12-03T13:31:23.845Z,87.76
2022-12-03T13:33:54.855Z,87.89
2022-12-03T13:36:27.600Z,88.29
2022-12-03T13:38:54.832Z,87.91
2022-12-03T13:44:49.884Z,88.24
2022-12-03T13:47:22.783Z,87.65
2022-12-03T13:52:42.645Z,88.00
2022-12-03T13:55:11.945Z,88.46
2022-12-03T13:57:45.439Z,88.49
2022-12-03T14:03:28.773Z,88.74
2022-12-03T14:05:57.389Z,88.91
2022-12-03T14:11:40.943Z,89.28
2022-12-03T14:14:22.933Z,89.68
2022-12-03T14:22:19.732Z,90.26
2022-12-03T14:24:52.466Z,90.36
2022-12-03T14:27:21.066Z,90.12
2022-12-03T14:29:48.134Z,90.77
2022-12-03T14:32:16.918Z,90.80
2022-12-03T14:34:47.603Z,90.59
2022-12-03T14:37:18.655Z,90.99
2022-12-03T14:39:48.685Z,91.53
2022-12-03T14:42:39.130Z,91.31
2022-12-03T14:45:10.994Z,91.47
2022-12-03T14:47:38.850Z,91.39
2022-12-03T14:50:30.443Z,91.92
2022-12-03T14:56:03.340Z,92.11
2022-12-03T15:01:45.091Z,92.54
2022-12-03T15:04:13.177Z,92.86
2022-12-03T15:06:40.348Z,92.38
2022-12-03T15:12:11.400Z,92.88
2022-12-03T15:14:43.896Z,92.91
2022-12-03T15:17:12.494Z,92.40
2022-12-03T15:19:40.210Z,92.05
2022-12-03T15:22:07.258Z,92.25
2022-12-03T15:24:34.735Z,92.60
2022-12-03T15:27:01.692Z,93.00
2022-12-03T15:29:32.555Z,92.82
2022-12-03T15:32:01.952Z,92.21
2022-12-03T15:34:30.750Z,92.08
2022-12-03T15:36:57.782Z,92.56
2022-12-03T15:39:48.786Z,92.22
2022-12-03T15:42:15.986Z,93.04
2022-12-03T15:44:48.402Z,92.76
2022-12-03T15:47:17.707Z,92.26
2022-12-03T15:49:53.527Z,92.37
2022-12-03T15:52:22.310Z,92.38
2022-12-03T15:54:49.927Z,92.68
2022-12-03T15:57:17.221Z,92.37
2022-12-03T15:59:48.366Z,92.45
2022-12-03T16:02:20.989Z,92.30
2022-12-03T16:04:48.596Z,92.14
2022-12-03T16:07:19.832Z,92.35
2022-12-03T16:09:47.857Z,92.66
2022-12-03T16:12:17.378Z,92.30
2022-12-03T16:14:47.407Z,92.65
2022-12-03T16:17:14.442Z,92.53
2022-12-03T16:19:42.000Z,92.78
2022-12-03T16:22:09.757Z,92.69
2022-12-03T16:24:39.363Z,92.52
2022-12-03T16:29:48.834Z,92.07
2022-12-03T16:32:15.844Z,91.86
2022-12-03T16:34:43.164Z,92.22
2022-12-03T16:37:11.553Z,91.99
2022-12-03T16:39:40.138Z,91.96
2022-12-03T16:42:16.959Z,92.12
2022-12-03T16:45:12.037Z,92.23
2022-12-03T16:47:40.325Z,92.36
2022-12-03T16:50:19.848Z,91.70
2022-12-03T16:52:49.482Z,92.68
2022-12-03T16:55:16.821Z,92.98
2022-12-03T16:57:44.042Z,92.02
2022-12-03T17:00:11.790Z,91.97
2022-12-03T17:02:39.034Z,91.18
2022-12-03T17:05:06.790Z,91.00
2022-12-03T17:07:34.120Z,91.57
2022-12-03T17:10:05.188Z,90.75
2022-12-03T17:12:54.163Z,90.13
2022-12-03T17:15:19.564Z,90.01
2022-12-03T17:17:47.055Z,89.85
2022-12-03T17:20:18.563Z,89.86
2022-12-03T17:23:06.550Z,89.88
2022-12-03T17:25:34.706Z,89.64
2022-12-03T17:28:02.069Z,89.78
2022-12-03T17:30:31.571Z,89.60
2022-12-03T17:32:59.414Z,90.34
2022-12-03T17:35:28.655Z,90.03
2022-12-03T17:37:55.906Z,90.85
2022-12-03T17:40:24.063Z,91.04
2022-12-03T17:42:52.248Z,90.86
2022-12-03T17:45:19.974Z,90.24
2022-12-03T17:47:47.219Z,90.87
2022-12-03T17:50:15.032Z,91.25
2022-12-03T17:52:44.090Z,91.58
2022-12-03T17:55:17.732Z,91.52
2022-12-03T17:57:49.054Z,91.97
2022-12-03T18:00:16.622Z,91.89
2022-12-03T18:02:43.625Z,92.13
2022-12-03T18:05:13.618Z,92.03
2022-12-03T18:07:41.024Z,92.54
2022-12-03T18:10:17.543Z,92.07
2022-12-03T18:12:48.450Z,92.17
2022-12-03T18:15:15.897Z,91.92
2022-12-03T18:17:47.245Z,92.39
2022-12-03T18:20:15.325Z,92.33
2022-12-03T18:22:45.636Z,92.67
2022-12-03T18:25:15.770Z,93.12
2022-12-03T18:27:42.880Z,94.04
2022-12-03T18:30:11.054Z,93.50
2022-12-03T18:32:38.065Z,93.50
2022-12-03T18:35:06.894Z,93.20
2022-12-03T18:37:34.115Z,93.33
2022-12-03T18:40:12.391Z,93.69
2022-12-03T18:42:39.711Z,93.89
2022-12-03T18:45:10.626Z,94.25
2022-12-03T18:47:37.703Z,94.14
2022-12-03T18:50:06.879Z,94.25
2022-12-03T18:52:33.883Z,94.47
2022-12-03T18:55:01.647Z,93.97
2022-12-03T18:57:28.725Z,93.72
2022-12-03T18:59:58.586Z,94.09
2022-12-03T19:05:15.675Z,93.67
2022-12-03T19:07:43.935Z,93.28
2022-12-03T19:10:12.406Z,93.12
2022-12-03T19:12:39.930Z,92.46
2022-12-03T19:15:09.053Z,92.71
2022-12-03T19:17:36.297Z,92.37
2022-12-03T19:20:11.405Z,91.75
2022-12-03T19:22:39.392Z,91.94
2022-12-03T19:25:10.110Z,91.94
2022-12-03T19:27:39.013Z,91.44
2022-12-03T19:30:07.541Z,91.66
2022-12-03T19:32:36.648Z,91.28
2022-12-03T19:35:05.544Z,91.58
2022-12-03T19:37:36.332Z,91.44
2022-12-03T19:40:05.560Z,91.49
2022-12-03T19:42:35.136Z,91.45
2022-12-03T19:45:02.547Z,91.90
2022-12-03T19:47:33.485Z,91.54
2022-12-03T19:50:01.761Z,91.28
2022-12-03T19:52:28.942Z,91.34
2022-12-03T19:55:00.535Z,91.47
2022-12-03T19:57:27.531Z,90.84
2022-12-03T19:59:57.903Z,90.54
2022-12-03T20:02:26.780Z,90.50
2022-12-03T20:05:02.243Z,90.30
2022-12-03T20:07:34.224Z,90.72
2022-12-03T20:10:01.627Z,90.44
2022-12-03T20:12:29.498Z,90.16
2022-12-03T20:14:57.616Z,90.38
2022-12-03T20:17:26.837Z,90.28
2022-12-03T20:19:57.254Z,90.95
2022-12-03T20:22:25.035Z,90.80
2022-12-03T20:24:57.809Z,90.55
2022-12-03T20:27:29.017Z,90.64
2022-12-03T20:30:17.990Z,90.30
2022-12-03T20:32:49.407Z,89.92
2022-12-03T20:35:17.729Z,89.69
2022-12-03T20:37:47.876Z,89.40
2022-12-03T20:40:18.527Z,89.57
2022-12-03T20:42:53.509Z,89.50
2022-12-03T20:45:24.836Z,89.64
2022-12-03T20:47:56.879Z,89.62
2022-12-03T20:50:30.090Z,89.54
2022-12-03T20:53:16.627Z,89.61
2022-12-03T20:55:45.046Z,89.46
2022-12-03T20:58:12.810Z,89.73
2022-12-03T21:00:40.978Z,90.39
2022-12-03T21:03:08.385Z,90.15
2022-12-03T21:05:35.371Z,90.66
2022-12-03T21:08:02.767Z,90.88
2022-12-03T21:10:59.017Z,90.59
2022-12-03T21:13:30.970Z,90.87
2022-12-03T21:16:09.017Z,90.58
2022-12-03T21:18:39.337Z,90.89
2022-12-03T21:21:07.316Z,90.78
2022-12-03T21:23:35.566Z,91.14
2022-12-03T21:26:15.022Z,90.93
2022-12-03T21:28:45.541Z,91.48
2022-12-03T21:31:23.493Z,91.15
2022-12-03T21:33:51.068Z,91.44
2022-12-03T21:36:18.373Z,90.98
2022-12-03T21:38:46.202Z,90.59
2022-12-03T21:41:14.567Z,90.88
2022-12-03T21:43:44.356Z,90.91
2022-12-03T21:47:11.640Z,90.70
2022-12-03T21:49:04.691Z,90.64
2022-12-03T21:51:31.759Z,90.26
2022-12-03T21:54:02.034Z,90.52
2022-12-03T21:56:32.111Z,90.16
2022-12-03T21:58:59.526Z,90.12
2022-12-03T22:01:26.681Z,89.96
2022-12-03T22:03:54.109Z,90.08
2022-12-03T22:06:21.470Z,90.19
2022-12-03T22:08:49.437Z,90.27
2022-12-03T22:11:22.269Z,89.97
2022-12-03T22:13:51.792Z,89.22
2022-12-03T22:16:21.327Z,89.42
2022-12-03T22:18:50.824Z,88.39
2022-12-03T22:21:19.853Z,88.22
2022-12-03T22:23:47.661Z,88.53
2022-12-03T22:26:17.092Z,88.32
2022-12-03T22:28:47.248Z,88.48
2022-12-03T22:31:14.833Z,88.42
2022-12-03T22:33:42.793Z,88.75
2022-12-03T22:36:19.925Z,88.37
2022-12-03T22:38:57.708Z,88.70
2022-12-03T22:41:24.795Z,88.06
2022-12-03T22:44:02.095Z,87.65
2022-12-03T22:46:29.198Z,88.25
2022-12-03T22:49:00.515Z,88.23
2022-12-03T22:51:31.644Z,87.73
2022-12-03T22:54:01.432Z,87.95
2022-12-03T22:56:29.386Z,88.36
2022-12-03T22:58:56.794Z,88.02
2022-12-03T23:01:32.631Z,88.03
2022-12-03T23:04:02.099Z,87.81
2022-12-03T23:06:30.868Z,87.69
2022-12-03T23:09:00.140Z,87.19
2022-12-03T23:11:28.905Z,87.59
2022-12-03T23:13:59.346Z,87.75
2022-12-03T23:16:29.659Z,87.89
2022-12-03T23:19:01.593Z,87.48
2022-12-03T23:21:31.429Z,87.88
2022-12-03T23:24:00.581Z,87.82
2022-12-03T23:26:28.723Z,87.21
2022-12-03T23:28:56.699Z,87.52
2022-12-03T23:31:29.941Z,87.50
2022-12-03T23:33:59.452Z,87.59
2022-12-03T23:36:28.908Z,86.72
2022-12-03T23:38:57.604Z,87.03
2022-12-03T23:41:25.228Z,87.14
2022-12-03T23:43:53.112Z,87.13
2022-12-03T23:46:23.093Z,87.19
2022-12-03T23:48:51.428Z,86.78
2022-12-03T23:51:21.448Z,86.65
2022-12-03T23:53:49.118Z,86.53
2022-12-03T23:56:20.436Z,86.63
2022-12-03T23:58:48.269Z,86.49
